Time;durP1;ratioP1;P1;durP2;ratioP2;P2;SDS_P1;SDS_P2;PMS_P1;PMS_P2;Temp;Humidity;BMP_temperature;BMP_pressure;BME280_temperature;BME280_humidity;BME280_pressure;Samples;Min_cycle;Max_cycle;Signal;HPM_P1;HPM_P2
2023/03/24 00:00:45;;;;;;;1999.90;999.90;;;;;;;12.37;100.00;94708.75;5089813;28;20181;-59
2023/03/24 00:03:11;;;;;;;1999.90;999.90;;;;;;;12.36;100.00;94704.47;5086910;28;20248;-59
2023/03/24 00:05:37;;;;;;;1999.90;999.90;;;;;;;12.34;100.00;94701.38;5087111;28;20235;-60
2023/03/24 00:08:03;;;;;;;1999.90;999.90;;;;;;;12.31;100.00;94707.75;5087280;28;20177;-60
2023/03/24 00:10:33;;;;;;;1999.90;999.90;;;;;;;12.23;100.00;94698.16;5086462;28;20224;-59
2023/03/24 00:12:59;;;;;;;1999.90;999.90;;;;;;;12.22;100.00;94686.44;5086407;28;20255;-59
2023/03/24 00:15:26;;;;;;;1999.90;999.90;;;;;;;12.18;100.00;94680.31;5086392;28;20215;-59
2023/03/24 00:17:52;;;;;;;1999.90;999.90;;;;;;;12.18;100.00;94669.34;5086384;28;20227;-59
2023/03/24 00:20:19;;;;;;;1999.90;999.90;;;;;;;12.22;100.00;94656.34;5086240;28;20183;-59
2023/03/24 00:22:55;;;;;;;1999.90;999.90;;;;;;;12.16;100.00;94651.78;5086402;28;20180;-60
2023/03/24 00:25:23;;;;;;;1999.90;999.90;;;;;;;12.16;100.00;94654.53;5086799;28;20175;-59
2023/03/24 00:27:50;;;;;;;1999.90;999.90;;;;;;;12.14;100.00;94649.53;5086495;28;20217;-59
2023/03/24 00:30:17;;;;;;;1999.90;999.90;;;;;;;12.06;100.00;94644.66;5086232;28;20192;-60
2023/03/24 00:32:43;;;;;;;1999.90;999.90;;;;;;;12.04;100.00;94644.31;5086138;28;20207;-59
2023/03/24 00:35:11;;;;;;;1999.90;999.90;;;;;;;12.03;100.00;94640.03;5086526;28;20189;-59
2023/03/24 00:37:38;;;;;;;1999.90;999.90;;;;;;;11.98;100.00;94632.38;5085883;28;20161;-60
2023/03/24 00:40:12;;;;;;;1999.90;999.90;;;;;;;11.92;100.00;94623.13;5085842;28;20174;-59
2023/03/24 00:42:40;;;;;;;1999.90;999.90;;;;;;;11.87;100.00;94621.69;5086421;28;20224;-60
2023/03/24 00:45:08;;;;;;;1999.90;999.90;;;;;;;11.89;100.00;94623.97;5086410;28;20173;-59
2023/03/24 00:47:36;;;;;;;1999.90;999.90;;;;;;;11.81;100.00;94622.63;5085648;28;20176;-59
2023/03/24 00:50:09;;;;;;;1999.90;999.90;;;;;;;11.78;100.00;94618.78;5086511;28;20221;-59
2023/03/24 00:52:34;;;;;;;1999.90;999.90;;;;;;;11.80;100.00;94618.38;5086256;28;20555;-59
2023/03/24 00:55:02;;;;;;;1999.90;999.90;;;;;;;11.79;100.00;94606.66;5086108;28;20259;-59
2023/03/24 00:57:33;;;;;;;1999.90;999.90;;;;;;;11.78;100.00;94607.84;5085526;28;20198;-60
2023/03/24 01:00:09;;;;;;;1999.90;999.90;;;;;;;11.80;100.00;94610.16;5086091;28;20169;-60
2023/03/24 01:02:35;;;;;;;1999.90;999.90;;;;;;;11.77;100.00;94613.75;5086035;28;20230;-58
2023/03/24 01:05:03;;;;;;;1999.90;999.90;;;;;;;11.76;100.00;94610.22;5085442;28;20183;-57
2023/03/24 01:07:29;;;;;;;1999.90;999.90;;;;;;;11.78;100.00;94605.13;5085403;28;20191;-57
2023/03/24 01:09:56;;;;;;;1999.90;999.90;;;;;;;11.80;100.00;94604.69;5086200;28;20172;-57
2023/03/24 01:12:28;;;;;;;1999.90;999.90;;;;;;;11.77;100.00;94608.28;5085595;28;20193;-57
2023/03/24 01:14:55;;;;;;;1999.90;999.90;;;;;;;11.83;100.00;94620.22;5085452;28;20186;-59
2023/03/24 01:17:24;;;;;;;1999.90;999.90;;;;;;;11.91;100.00;94627.06;5085990;28;20173;-57
2023/03/24 01:19:54;;;;;;;1999.90;999.90;;;;;;;11.94;100.00;94631.66;5085167;28;20207;-58
2023/03/24 01:22:20;;;;;;;1999.90;999.90;;;;;;;11.95;100.00;94638.69;5085362;28;20226;-59
2023/03/24 01:24:46;;;;;;;1999.90;999.90;;;;;;;11.97;100.00;94630.81;5084938;28;20171;-59
2023/03/24 01:27:12;;;;;;;1999.90;999.90;;;;;;;11.99;100.00;94628.41;5085088;28;20192;-58
2023/03/24 01:29:39;;;;;;;1999.90;999.90;;;;;;;11.99;100.00;94622.94;5085320;28;20269;-59
2023/03/24 01:32:05;;;;;;;1999.90;999.90;;;;;;;12.02;100.00;94627.56;5084965;28;20200;-58
2023/03/24 01:34:32;;;;;;;1999.90;999.90;;;;;;;12.05;100.00;94629.41;5085497;28;20182;-58
2023/03/24 01:36:58;;;;;;;1999.90;999.90;;;;;;;12.01;100.00;94620.53;5084825;28;20204;-58
2023/03/24 01:39:23;;;;;;;1999.90;999.90;;;;;;;11.95;100.00;94616.81;5085300;28;20242;-59
2023/03/24 01:41:48;;;;;;;1999.90;999.90;;;;;;;11.92;100.00;94617.66;5084740;28;20197;-59
2023/03/24 01:44:28;;;;;;;1999.90;999.90;;;;;;;11.93;100.00;94608.25;5085056;28;20173;-57
2023/03/24 01:46:55;;;;;;;1999.90;999.90;;;;;;;11.95;100.00;94605.84;5085118;28;20192;-58
2023/03/24 01:49:24;;;;;;;1999.90;999.90;;;;;;;11.95;100.00;94603.13;5084676;28;20217;-59
2023/03/24 01:51:54;;;;;;;1999.90;999.90;;;;;;;11.95;100.00;94597.66;5084397;28;20215;-58
2023/03/24 01:54:34;;;;;;;1999.90;999.90;;;;;;;11.89;100.00;94596.63;5084342;28;20229;-59
2023/03/24 01:57:07;;;;;;;1999.90;999.90;;;;;;;11.83;100.00;94587.41;5084963;28;20175;-59
2023/03/24 01:59:35;;;;;;;1999.90;999.90;;;;;;;11.85;100.00;94585.78;5085014;28;20239;-59
2023/03/24 02:02:03;;;;;;;1999.90;999.90;;;;;;;11.81;100.00;94585.13;5084300;28;20168;-59
2023/03/24 02:04:37;;;;;;;1999.90;999.90;;;;;;;11.84;100.00;94589.69;5084326;28;20176;-59
2023/03/24 02:07:17;;;;;;;1999.90;999.90;;;;;;;11.88;100.00;94589.63;5084847;28;20172;-58
2023/03/24 02:09:43;;;;;;;1999.90;999.90;;;;;;;11.89;100.00;94602.09;5084413;28;20172;-59
2023/03/24 02:12:09;;;;;;;1999.90;999.90;;;;;;;11.92;100.00;94602.03;5084076;28;20201;-58
2023/03/24 02:14:35;;;;;;;1999.90;999.90;;;;;;;11.98;100.00;94605.00;5084170;28;20218;-60
2023/03/24 02:17:15;;;;;;;1999.90;999.90;;;;;;;12.01;100.00;94599.41;5084720;28;20169;-59
2023/03/24 02:20:00;;;;;;;1999.90;999.90;;;;;;;12.06;100.00;94611.81;5084704;28;20168;-59
2023/03/24 02:23:13;;;;;;;1999.90;999.90;;;;;;;12.07;100.00;94596.94;5084662;28;20176;-59
2023/03/24 02:25:57;;;;;;;1999.90;999.90;;;;;;;12.02;100.00;94600.94;5083720;28;20177;-63
2023/03/24 02:28:32;;;;;;;1999.90;999.90;;;;;;;11.97;100.00;94590.53;5083988;28;20224;-58
2023/03/24 02:31:27;;;;;;;1999.90;999.90;;;;;;;11.95;100.00;94592.19;5083787;28;20196;-58
2023/03/24 02:34:11;;;;;;;1999.90;999.90;;;;;;;12.00;100.00;94602.59;5084543;28;20173;-58
2023/03/24 02:36:48;;;;;;;1999.90;999.90;;;;;;;12.06;100.00;94606.34;5084074;28;20180;-60
2023/03/24 02:39:32;;;;;;;1999.90;999.90;;;;;;;12.09;100.00;94600.00;5084428;28;20173;-59
2023/03/24 02:42:01;;;;;;;1999.90;999.90;;;;;;;12.13;100.00;94606.16;5084350;28;20173;-59
2023/03/24 02:44:41;;;;;;;1999.90;999.90;;;;;;;12.14;100.00;94608.47;5083809;28;20177;-59
2023/03/24 02:47:17;;;;;;;1999.90;999.90;;;;;;;12.12;100.00;94610.06;5084624;28;20173;-59
2023/03/24 02:50:12;;;;;;;1999.90;999.90;;;;;;;12.07;100.00;94607.88;5083711;28;20173;-60
2023/03/24 02:52:54;;;;;;;1999.90;999.90;;;;;;;11.97;100.00;94600.72;5084313;28;20210;-60
2023/03/24 02:55:32;;;;;;;1999.90;999.90;;;;;;;11.86;100.00;94587.31;5084224;28;20502;-58
2023/03/24 02:58:06;;;;;;;1999.90;999.90;;;;;;;11.84;100.00;94591.69;5084329;28;20171;-58
2023/03/24 03:00:40;;;;;;;1999.90;999.90;;;;;;;11.80;100.00;94577.34;5084330;28;20174;-58
2023/03/24 03:03:13;;;;;;;1999.90;999.90;;;;;;;11.73;100.00;94566.56;5084546;28;20178;-59
2023/03/24 03:05:54;;;;;;;1999.90;999.90;;;;;;;11.82;100.00;94569.44;5083671;28;20172;-60
2023/03/24 03:08:23;;;;;;;1999.90;999.90;;;;;;;11.82;100.00;94572.19;5083893;28;20172;-58
2023/03/24 03:10:51;;;;;;;1999.90;999.90;;;;;;;11.87;100.00;94566.22;5084072;28;20285;-58
2023/03/24 03:13:39;;;;;;;1999.90;999.90;;;;;;;11.90;100.00;94573.53;5083535;28;20201;-57
2023/03/24 03:16:14;;;;;;;1999.90;999.90;;;;;;;11.95;100.00;94573.03;5083459;28;20177;-57
2023/03/24 03:18:53;;;;;;;1999.90;999.90;;;;;;;11.94;100.00;94572.25;5084077;28;20172;-59
2023/03/24 03:21:23;;;;;;;1999.90;999.90;;;;;;;11.90;100.00;94566.09;5083548;28;20171;-59
2023/03/24 03:23:55;;;;;;;1999.90;999.90;;;;;;;11.91;100.00;94556.69;5083714;28;20179;-59
2023/03/24 03:26:25;;;;;;;1999.90;999.90;;;;;;;11.94;100.00;94566.00;5083948;28;20172;-59
2023/03/24 03:28:56;;;;;;;1999.90;999.90;;;;;;;11.92;100.00;94546.53;5083298;28;20220;-59
2023/03/24 03:31:30;;;;;;;1999.90;999.90;;;;;;;11.96;100.00;94552.66;5083869;28;20185;-59
2023/03/24 03:34:00;;;;;;;1999.90;999.90;;;;;;;11.92;100.00;94552.78;5083598;28;20192;-59
2023/03/24 03:36:31;;;;;;;1999.90;999.90;;;;;;;11.94;100.00;94544.88;5083349;28;20161;-59
2023/03/24 03:39:07;;;;;;;1999.90;999.90;;;;;;;11.91;100.00;94540.28;5086611;28;20240;-59
2023/03/24 03:41:32;;;;;;;1999.90;999.90;;;;;;;11.87;100.00;94545.06;5087569;28;20169;-59
2023/03/24 03:43:59;;;;;;;1999.90;999.90;;;;;;;11.86;100.00;94523.63;5087038;28;20170;-59
2023/03/24 03:46:25;;;;;;;1999.90;999.90;;;;;;;11.81;100.00;94529.63;5086940;28;20192;-59
2023/03/24 03:48:52;;;;;;;1999.90;999.90;;;;;;;11.76;100.00;94521.97;5086976;28;20169;-59
2023/03/24 03:51:18;;;;;;;1999.90;999.90;;;;;;;11.71;100.00;94508.78;5087016;28;20193;-59
2023/03/24 03:53:51;;;;;;;1999.90;999.90;;;;;;;11.74;100.00;94507.94;5086771;28;20192;-59
2023/03/24 03:56:21;;;;;;;1999.90;999.90;;;;;;;11.75;100.00;94498.53;5087551;28;20169;-59
2023/03/24 03:58:47;;;;;;;1999.90;999.90;;;;;;;11.72;100.00;94488.44;5086815;28;20230;-59
2023/03/24 04:01:17;;;;;;;1999.90;999.90;;;;;;;11.70;100.00;94474.44;5086658;28;20244;-59
2023/03/24 04:03:45;;;;;;;1999.90;999.90;;;;;;;11.70;100.00;94474.44;5086622;28;20177;-60
2023/03/24 04:06:27;;;;;;;1999.90;999.90;;;;;;;11.69;100.00;94478.38;5086961;28;20223;-59
2023/03/24 04:09:18;;;;;;;1999.90;999.90;;;;;;;11.68;100.00;94463.16;5087130;28;20171;-59
2023/03/24 04:12:10;;;;;;;1999.90;999.90;;;;;;;11.69;100.00;94461.97;5086740;28;20242;-59
2023/03/24 04:14:54;;;;;;;1999.90;999.90;;;;;;;11.65;100.00;94462.06;5087268;28;20172;-59
2023/03/24 04:17:57;;;;;;;1999.90;999.90;;;;;;;11.63;100.00;94460.97;5086952;28;20210;-59
2023/03/24 04:20:31;;;;;;;1999.90;999.90;;;;;;;11.64;100.00;94465.22;5086867;28;20206;-59
2023/03/24 04:23:03;;;;;;;1999.90;999.90;;;;;;;11.64;100.00;94462.50;5086800;28;20170;-58
2023/03/24 04:25:34;;;;;;;1999.90;999.90;;;;;;;11.68;100.00;94466.66;5086754;28;20197;-59
2023/03/24 04:28:38;;;;;;;1999.90;999.90;;;;;;;11.64;100.00;94470.69;5086591;28;20229;-59
2023/03/24 04:31:22;;;;;;;1999.90;999.90;;;;;;;11.65;100.00;94477.72;5085932;28;20183;-59
2023/03/24 04:34:02;;;;;;;1999.90;999.90;;;;;;;11.66;100.00;94479.25;5086108;28;20187;-60
2023/03/24 04:36:41;;;;;;;1999.90;999.90;;;;;;;11.68;100.00;94471.34;5086625;28;20168;-58
2023/03/24 04:39:24;;;;;;;1999.90;999.90;;;;;;;11.67;100.00;94480.78;5086043;28;20238;-57
2023/03/24 04:41:51;;;;;;;1999.90;999.90;;;;;;;11.68;100.00;94474.09;5085891;28;20164;-58
2023/03/24 04:44:20;;;;;;;1999.90;999.90;;;;;;;11.67;100.00;94475.31;5086385;28;20169;-59
2023/03/24 04:46:46;;;;;;;1999.90;999.90;;;;;;;11.71;100.00;94465.03;5086325;28;20216;-59
2023/03/24 04:49:12;;;;;;;1999.90;999.90;;;;;;;11.71;100.00;94471.28;5085075;28;20170;-59
2023/03/24 04:51:37;;;;;;;1999.90;999.90;;;;;;;11.70;100.00;94468.97;5085767;28;20202;-59
2023/03/24 04:54:03;;;;;;;1999.90;999.90;;;;;;;11.76;100.00;94472.72;5085527;28;20200;-59
2023/03/24 04:56:46;;;;;;;1999.90;999.90;;;;;;;11.79;100.00;94478.09;5086202;28;20172;-59
2023/03/24 04:59:12;;;;;;;1999.90;999.90;;;;;;;11.83;100.00;94476.00;5086043;28;20169;-59
2023/03/24 05:01:38;;;;;;;1999.90;999.90;;;;;;;11.78;100.00;94481.25;5086329;28;20180;-59
2023/03/24 05:04:04;;;;;;;1999.90;999.90;;;;;;;11.80;100.00;94474.13;5085385;28;20219;-59
2023/03/24 05:06:30;;;;;;;1999.90;999.90;;;;;;;11.82;100.00;94479.19;5085467;28;20240;-58
2023/03/24 05:08:57;;;;;;;1999.90;999.90;;;;;;;11.82;100.00;94476.44;5085782;28;20179;-58
2023/03/24 05:11:27;;;;;;;1999.90;999.90;;;;;;;11.84;100.00;94471.31;5085339;28;20196;-59
2023/03/24 05:13:53;;;;;;;1999.90;999.90;;;;;;;11.86;100.00;94471.63;5085731;28;20173;-59
2023/03/24 05:16:19;;;;;;;1999.90;999.90;;;;;;;11.88;100.00;94482.94;5085460;28;20179;-60
2023/03/24 05:18:45;;;;;;;1999.90;999.90;;;;;;;11.91;100.00;94495.75;5085876;28;20170;-59
2023/03/24 05:21:10;;;;;;;1999.90;999.90;;;;;;;11.94;100.00;94503.06;5085165;28;20173;-59
2023/03/24 05:23:36;;;;;;;1999.90;999.90;;;;;;;11.92;100.00;94508.22;5085125;28;20173;-59
2023/03/24 05:26:01;;;;;;;1999.90;999.90;;;;;;;11.77;100.00;94501.59;5084987;28;20181;-59
2023/03/24 05:28:27;;;;;;;1999.90;999.90;;;;;;;11.67;100.00;94486.25;5084776;28;20220;-59
2023/03/24 05:30:52;;;;;;;1999.90;999.90;;;;;;;11.61;100.00;94482.50;5084925;28;20235;-58
2023/03/24 05:33:18;;;;;;;1999.90;999.90;;;;;;;11.57;100.00;94482.56;5084591;28;20205;-58
2023/03/24 05:35:43;;;;;;;1999.90;999.90;;;;;;;11.62;100.00;94484.03;5085342;28;20195;-60
2023/03/24 05:38:08;;;;;;;1999.90;999.90;;;;;;;11.64;100.00;94470.69;5084856;28;20248;-58
2023/03/24 05:40:37;;;;;;;1999.90;999.90;;;;;;;11.65;100.00;94466.78;5084703;28;20202;-59
2023/03/24 05:43:02;;;;;;;1999.90;999.90;;;;;;;11.64;100.00;94459.75;5084629;28;20170;-58
2023/03/24 05:45:29;;;;;;;1999.90;999.90;;;;;;;11.69;100.00;94456.50;5084657;28;20243;-58
2023/03/24 05:47:54;;;;;;;1999.90;999.90;;;;;;;11.66;100.00;94440.97;5085240;28;20201;-58
2023/03/24 05:50:20;;;;;;;1999.90;999.90;;;;;;;11.65;100.00;94425.75;5084601;28;20169;-58
2023/03/24 05:52:46;;;;;;;1999.90;999.90;;;;;;;11.68;100.00;94422.13;5084433;28;20204;-59
2023/03/24 05:55:11;;;;;;;1999.90;999.90;;;;;;;11.74;100.00;94417.69;5084365;28;20191;-58
2023/03/24 05:57:37;;;;;;;1999.90;999.90;;;;;;;11.81;100.00;94433.88;5084939;28;20168;-59
2023/03/24 06:00:09;;;;;;;1999.90;999.90;;;;;;;11.85;100.00;94442.75;5084201;28;20204;-59
2023/03/24 06:02:35;;;;;;;1999.90;999.90;;;;;;;11.92;100.00;94439.81;5081573;28;20169;-59
2023/03/24 06:05:00;;;;;;;1999.90;999.90;;;;;;;11.95;100.00;94444.44;5084060;28;20178;-58
2023/03/24 06:07:29;;;;;;;1999.90;999.90;;;;;;;11.98;100.00;94435.34;5084224;28;20251;-58
2023/03/24 06:09:56;;;;;;;1999.90;999.90;;;;;;;11.98;100.00;94429.88;5084034;28;20168;-58
2023/03/24 06:12:22;;;;;;;1999.90;999.90;;;;;;;12.00;100.00;94438.41;5084601;28;20204;-58
2023/03/24 06:14:48;;;;;;;1999.90;999.90;;;;;;;12.01;100.00;94445.41;5084572;28;20169;-58
2023/03/24 06:17:13;;;;;;;1999.90;999.90;;;;;;;12.04;100.00;94428.13;5084149;28;20248;-58
2023/03/24 06:19:47;;;;;;;1999.90;999.90;;;;;;;12.02;100.00;94420.34;5084034;28;20188;-59
2023/03/24 06:22:12;;;;;;;1999.90;999.90;;;;;;;11.97;100.00;94411.91;5084556;28;20161;-59
2023/03/24 06:24:38;;;;;;;1999.90;999.90;;;;;;;11.95;100.00;94400.66;5083997;28;20168;-59
2023/03/24 06:27:07;;;;;;;1999.90;999.90;;;;;;;11.95;100.00;94392.44;5084174;28;20177;-59
2023/03/24 06:29:33;;;;;;;1999.90;999.90;;;;;;;11.99;100.00;94388.38;5083532;28;20217;-59
2023/03/24 06:31:58;;;;;;;1999.90;999.90;;;;;;;12.04;100.00;94400.75;5083804;28;20245;-59
2023/03/24 06:34:24;;;;;;;1999.90;999.90;;;;;;;12.17;100.00;94404.28;5084205;28;20176;-59
2023/03/24 06:36:50;;;;;;;1999.90;999.90;;;;;;;12.31;100.00;94409.31;5083674;28;20211;-59
2023/03/24 06:39:16;;;;;;;1999.90;999.90;;;;;;;12.37;100.00;94424.00;5083639;28;20170;-59
2023/03/24 06:41:42;;;;;;;1999.90;999.90;;;;;;;12.48;100.00;94418.94;5083701;28;20202;-60
2023/03/24 06:44:07;;;;;;;1999.90;999.90;;;;;;;12.48;100.00;94418.94;5084170;28;20238;-57
2023/03/24 06:46:32;;;;;;;1999.90;999.90;;;;;;;12.42;100.00;94420.72;5084207;28;20172;-59
2023/03/24 06:48:58;;;;;;;1999.90;999.90;;;;;;;12.40;100.00;94429.38;5083628;28;20227;-58
2023/03/24 06:51:23;;;;;;;1999.90;999.90;;;;;;;12.39;100.00;94435.28;5084149;28;20201;-58
2023/03/24 06:53:48;;;;;;;1999.90;999.90;;;;;;;12.37;100.00;94440.41;5083784;28;20197;-58
2023/03/24 06:56:18;;;;;;;1999.90;999.90;;;;;;;12.39;100.00;94427.81;5084242;28;20169;-58
2023/03/24 06:58:44;;;;;;;1999.90;999.90;;;;;;;12.46;100.00;94432.31;5084083;28;20187;-59
2023/03/24 07:01:10;;;;;;;1999.90;999.90;;;;;;;12.57;100.00;94444.47;5083507;28;20173;-58
2023/03/24 07:03:36;;;;;;;1999.90;999.90;;;;;;;12.66;100.00;94446.53;5083603;28;20177;-58
2023/03/24 07:06:02;;;;;;;1999.90;999.90;;;;;;;12.75;100.00;94446.66;5083731;28;20169;-59
2023/03/24 07:08:27;;;;;;;1999.90;999.90;;;;;;;12.72;100.00;94451.03;5083467;28;20179;-58
2023/03/24 07:10:52;;;;;;;1999.90;999.90;;;;;;;12.76;100.00;94459.16;5083565;28;20170;-59
2023/03/24 07:13:18;;;;;;;1999.90;999.90;;;;;;;12.71;100.00;94460.47;5085810;28;20196;-59
2023/03/24 07:15:43;;;;;;;1999.90;999.90;;;;;;;12.67;100.00;94478.22;5087450;28;20287;-59
2023/03/24 07:18:08;;;;;;;1999.90;999.90;;;;;;;12.64;100.00;94481.84;5087623;28;20175;-59
2023/03/24 07:20:34;;;;;;;1999.90;999.90;;;;;;;12.68;100.00;94480.50;5087460;28;20173;-59
2023/03/24 07:22:59;;;;;;;1999.90;999.90;;;;;;;12.71;100.00;94473.38;5087767;28;20170;-59
2023/03/24 07:25:25;;;;;;;1999.90;999.90;;;;;;;12.72;100.00;94488.63;5087949;28;20176;-59
2023/03/24 07:27:55;;;;;;;1999.90;999.90;;;;;;;12.71;100.00;94478.84;5087506;28;20217;-60
2023/03/24 07:30:20;;;;;;;1999.90;999.90;;;;;;;12.66;100.00;94484.91;5087690;28;20184;-58
2023/03/24 07:32:48;;;;;;;1999.90;999.90;;;;;;;12.63;100.00;94488.50;5086988;28;20192;-59
2023/03/24 07:35:15;;;;;;;1999.90;999.90;;;;;;;12.62;100.00;94495.19;5087094;28;20169;-58
2023/03/24 07:37:41;;;;;;;1999.90;999.90;;;;;;;12.53;100.00;94484.88;5087163;28;20165;-58
2023/03/24 07:40:10;;;;;;;1999.90;999.90;;;;;;;12.50;100.00;94474.81;5086971;28;20234;-58
2023/03/24 07:42:41;;;;;;;1999.90;999.90;;;;;;;12.46;100.00;94487.09;5087068;28;20174;-59
2023/03/24 07:45:10;;;;;;;1999.90;999.90;;;;;;;12.40;100.00;94477.88;5087408;28;20172;-59
2023/03/24 07:47:37;;;;;;;1999.90;999.90;;;;;;;12.38;100.00;94475.56;5086868;28;20177;-59
2023/03/24 07:50:08;;;;;;;1999.90;999.90;;;;;;;12.38;100.00;94466.59;5087038;28;20176;-60
2023/03/24 07:52:38;;;;;;;1999.90;999.90;;;;;;;12.42;100.00;94459.81;5087255;28;20264;-58
2023/03/24 07:55:07;;;;;;;1999.90;999.90;;;;;;;12.46;100.00;94476.13;5086857;28;20307;-59
2023/03/24 07:57:36;;;;;;;1999.90;999.90;;;;;;;12.56;100.00;94477.78;5087108;28;20270;-59
2023/03/24 08:00:18;;;;;;;1999.90;999.90;;;;;;;12.63;100.00;94483.03;5086622;28;20177;-59
2023/03/24 08:02:50;;;;;;;1999.90;999.90;;;;;;;12.67;100.00;94492.69;5087194;28;20240;-59
2023/03/24 08:05:18;;;;;;;1999.90;999.90;;;;;;;12.74;100.00;94514.38;5087354;28;20170;-59
2023/03/24 08:07:49;;;;;;;1999.90;999.90;;;;;;;12.85;100.00;94538.69;5086449;28;20169;-60
2023/03/24 08:10:15;;;;;;;1999.90;999.90;;;;;;;12.96;100.00;94550.09;5087013;28;20201;-58
2023/03/24 08:12:41;;;;;;;1999.90;999.90;;;;;;;13.08;100.00;94560.34;5086838;28;20189;-58
2023/03/24 08:15:08;;;;;;;1999.90;999.90;;;;;;;13.25;100.00;94559.00;5086934;28;20176;-59
2023/03/24 08:17:34;;;;;;;1999.90;999.90;;;;;;;13.45;100.00;94561.50;5086366;28;20172;-59
2023/03/24 08:20:00;;;;;;;1999.90;999.90;;;;;;;13.71;100.00;94569.25;5086889;28;20169;-59
2023/03/24 08:22:26;;;;;;;1999.90;999.90;;;;;;;14.04;100.00;94575.94;5086212;28;20200;-59
2023/03/24 08:24:51;;;;;;;1999.90;999.90;;;;;;;14.39;100.00;94571.97;5085135;28;20165;-59
2023/03/24 08:27:17;;;;;;;1999.90;999.90;;;;;;;14.65;100.00;94573.38;5086174;28;20199;-59
2023/03/24 08:29:42;;;;;;;1999.90;999.90;;;;;;;14.82;100.00;94573.94;5086748;28;20280;-59
2023/03/24 08:32:08;;;;;;;1999.90;999.90;;;;;;;14.97;100.00;94581.16;5086431;28;20260;-59
2023/03/24 08:34:33;;;;;;;1999.90;999.90;;;;;;;15.04;100.00;94586.41;5086671;28;20181;-59
2023/03/24 08:36:59;;;;;;;1999.90;999.90;;;;;;;15.15;100.00;94597.75;5085949;28;20169;-59
2023/03/24 08:39:24;;;;;;;1999.90;999.90;;;;;;;15.16;100.00;94598.53;5086164;28;20170;-59
2023/03/24 08:41:50;;;;;;;1999.90;999.90;;;;;;;15.21;100.00;94593.22;5086504;28;20180;-60
2023/03/24 08:44:15;;;;;;;1999.90;999.90;;;;;;;15.25;100.00;94602.09;5086074;28;20176;-59
2023/03/24 08:46:41;;;;;;;1999.90;999.90;;;;;;;15.24;100.00;94610.78;5085789;28;20166;-59
2023/03/24 08:49:07;;;;;;;1999.90;999.90;;;;;;;15.22;100.00;94613.22;5085796;28;20502;-59
2023/03/24 08:51:32;;;;;;;1999.90;999.90;;;;;;;15.23;100.00;94612.75;5085734;28;20250;-59
2023/03/24 08:53:58;;;;;;;1999.90;999.90;;;;;;;15.19;100.00;94614.88;5085704;28;20197;-57
2023/03/24 08:56:24;;;;;;;1999.90;999.90;;;;;;;15.13;100.00;94619.47;5085862;28;20177;-59
2023/03/24 08:58:52;;;;;;;1999.90;999.90;;;;;;;15.01;100.00;94625.78;5085622;28;20169;-58
2023/03/24 09:01:19;;;;;;;1999.90;999.90;;;;;;;15.00;100.00;94624.25;5086070;28;20169;-59
2023/03/24 09:03:45;;;;;;;1999.90;999.90;;;;;;;15.03;100.00;94628.88;5085561;28;20219;-59
2023/03/24 09:06:10;;;;;;;1999.90;999.90;;;;;;;14.90;100.00;94632.91;5086041;28;20177;-59
2023/03/24 09:08:36;;;;;;;1999.90;999.90;;;;;;;14.82;100.00;94621.41;5085131;28;20264;-59
2023/03/24 09:11:02;;;;;;;1999.90;999.90;;;;;;;14.81;100.00;94628.13;5085603;28;20173;-60
2023/03/24 09:13:28;;;;;;;1999.90;999.90;;;;;;;14.81;100.00;94617.13;5085863;28;20181;-58
2023/03/24 09:15:59;;;;;;;1999.90;999.90;;;;;;;14.82;100.00;94618.66;5085182;28;20180;-59
2023/03/24 09:18:24;;;;;;;1999.90;999.90;;;;;;;14.92;100.00;94623.00;5085140;28;20162;-60
2023/03/24 09:20:51;;;;;;;1999.90;999.90;;;;;;;15.05;100.00;94629.16;5085204;28;20173;-59
2023/03/24 09:23:16;;;;;;;1999.90;999.90;;;;;;;15.18;100.00;94629.88;5085571;28;20184;-59
2023/03/24 09:25:42;;;;;;;1999.90;999.90;;;;;;;15.19;100.00;94631.38;5085368;28;20181;-59
2023/03/24 09:28:07;;;;;;;1999.90;999.90;;;;;;;15.29;100.00;94634.94;5084820;28;20284;-59
2023/03/24 09:30:33;;;;;;;1999.90;999.90;;;;;;;15.18;100.00;94631.84;5084962;28;20165;-58
2023/03/24 09:32:59;;;;;;;1999.90;999.90;;;;;;;15.19;100.00;94636.13;5084679;28;20216;-59
2023/03/24 09:35:27;;;;;;;1999.90;999.90;;;;;;;15.02;100.00;94635.59;5084742;28;20197;-59
2023/03/24 09:37:54;;;;;;;1999.90;999.90;;;;;;;15.07;100.00;94646.00;5084836;28;20162;-59
2023/03/24 09:40:25;;;;;;;1999.90;999.90;;;;;;;14.84;100.00;94640.97;5084766;28;20259;-58
2023/03/24 09:43:05;;;;;;;1999.90;999.90;;;;;;;14.72;100.00;94647.28;5084658;28;20161;-59
2023/03/24 09:45:36;;;;;;;1999.90;999.90;;;;;;;14.62;100.00;94650.44;5085256;28;20195;-58
2023/03/24 09:48:11;;;;;;;1999.90;999.90;;;;;;;14.41;100.00;94651.19;5085185;28;20189;-60
2023/03/24 09:50:58;;;;;;;1999.90;999.90;;;;;;;14.31;100.00;94633.84;5084762;28;20489;-59
2023/03/24 09:53:35;;;;;;;1999.90;999.90;;;;;;;14.20;100.00;94627.94;5084925;28;20450;-59
2023/03/24 09:56:10;;;;;;;1999.90;999.90;;;;;;;14.05;100.00;94624.16;5084923;28;20157;-59
2023/03/24 09:58:35;;;;;;;1999.90;999.90;;;;;;;14.04;100.00;94617.13;5084467;28;20184;-60
2023/03/24 10:01:01;;;;;;;1999.90;999.90;;;;;;;13.96;100.00;94615.84;5084785;28;20177;-59
2023/03/24 10:03:26;;;;;;;1999.90;999.90;;;;;;;13.85;100.00;94612.69;5084967;28;20177;-60
2023/03/24 10:06:07;;;;;;;1999.90;999.90;;;;;;;13.80;100.00;94605.00;5084314;28;20195;-60
2023/03/24 10:08:39;;;;;;;1999.90;999.90;;;;;;;13.71;100.00;94602.16;5084631;28;20199;-59
2023/03/24 10:11:33;;;;;;;1999.90;999.90;;;;;;;13.71;100.00;94580.22;5084687;28;20170;-59
2023/03/24 10:14:14;;;;;;;1999.90;999.90;;;;;;;13.71;100.00;94569.25;5084199;28;20181;-59
2023/03/24 10:16:59;;;;;;;1999.90;999.90;;;;;;;13.73;100.00;94555.84;5084617;28;20173;-58
2023/03/24 10:19:43;;;;;;;1999.90;999.90;;;;;;;13.81;100.00;94554.41;5084280;28;20165;-58
2023/03/24 10:22:17;;;;;;;1999.90;999.90;;;;;;;13.80;100.00;94549.34;5084517;28;20180;-58
2023/03/24 10:25:20;;;;;;;1999.90;999.90;;;;;;;13.73;100.00;94558.56;5084537;28;20236;-58
2023/03/24 10:27:50;;;;;;;1999.90;999.90;;;;;;;13.69;100.00;94544.22;5084246;28;20319;-59
2023/03/24 10:30:22;;;;;;;1999.90;999.90;;;;;;;13.69;100.00;94516.03;5083983;28;20185;-59
2023/03/24 10:32:48;;;;;;;1999.90;999.90;;;;;;;13.68;100.00;94498.78;5084479;28;20262;-59
2023/03/24 10:35:18;;;;;;;1999.90;999.90;;;;;;;13.68;100.00;94479.56;5083820;28;20329;-58
2023/03/24 10:37:44;;;;;;;1999.90;999.90;;;;;;;13.72;100.00;94477.47;5084361;28;20180;-58
2023/03/24 10:40:17;;;;;;;1999.90;999.90;;;;;;;13.58;100.00;94439.56;5083986;28;20181;-59
2023/03/24 10:42:45;;;;;;;1999.90;999.90;;;;;;;13.56;100.00;94392.63;5084109;28;20255;-59
2023/03/24 10:45:23;;;;;;;1999.90;999.90;;;;;;;13.64;100.00;94373.91;5083767;28;20197;-59
2023/03/24 10:47:50;;;;;;;1999.90;999.90;;;;;;;13.74;100.00;94357.06;5083569;28;20172;-59
2023/03/24 10:50:15;;;;;;;1999.90;999.90;;;;;;;13.90;100.00;94350.56;5083886;28;20185;-59
2023/03/24 10:52:47;;;;;;;1999.90;999.90;;;;;;;14.04;100.00;94372.00;5083557;28;20224;-62
2023/03/24 10:55:19;;;;;;;1999.90;999.90;;;;;;;14.14;100.00;94437.53;5084292;28;20225;-58
2023/03/24 10:57:48;;;;;;;1999.90;999.90;;;;;;;14.14;100.00;94486.94;5084229;28;20192;-60
2023/03/24 11:00:28;;;;;;;1999.90;999.90;;;;;;;14.13;100.00;94523.09;5084117;28;20173;-58